Terminal Aerodrome Forecast
Issued by NWS Blacksburg, VA

Current Version | Previous Version | Graphics & Text | Print | Product List | Glossary On
Versions: 1 2 3 4 5 6 7 8 9 10 11 12 13 14 15 16 17 18 19 20 21 22 23 24 25 26 27 28 29 30 31 32 33 34 35 36 37 38 39 40 41 42 43 44 45 46 47 48 49 50
474
FTUS41 KRNK 282011 AAA
TAFBLF
TAF AMD
KBLF 282011Z 2820/2918 26010KT P6SM VCSH OVC060
     FM282100 26010KT 6SM -TSRA OVC040CB
      TEMPO 2821/2824 VRB15G30KT 2SM TSRA OVC025CB
     FM290000 26004KT 5SM -TSRA OVC025CB
      TEMPO 2902/2905 2SM TSRA OVC015CB
     FM290500 28004KT 5SM -TSRA OVC015CB
     FM291000 28006KT 5SM BR VCSH OVC010
     FM291400 29007KT P6SM OVC025=

USA.gov is the U.S. government's official web portal to all federal, state and local government web resources and services.